Time;durP1;ratioP1;P1;durP2;ratioP2;P2;SDS_P1;SDS_P2;PMS_P1;PMS_P2;Temp;Humidity;BMP_temperature;BMP_pressure;BME280_temperature;BME280_humidity;BME280_pressure;Samples;Min_cycle;Max_cycle;Signal;HPM_P1;HPM_P2
2021/07/20 00:02:20;;;;;;;8.07;6.93;;;;;;;;;;5076040;28;20215;-81
2021/07/20 00:04:46;;;;;;;7.23;6.53;;;;;;;;;;5075515;28;20214;-81
2021/07/20 00:07:12;;;;;;;7.33;6.63;;;;;;;;;;5075662;28;20717;-81
2021/07/20 00:09:38;;;;;;;8.03;7.23;;;;;;;;;;5076569;28;20191;-81
2021/07/20 00:12:05;;;;;;;8.70;7.17;;;;;;;;;;5076599;28;20172;-81
2021/07/20 00:14:31;;;;;;;9.93;7.03;;;;;;;;;;5076062;28;20232;-82
2021/07/20 00:16:57;;;;;;;7.87;6.60;;;;;;;;;;5076198;28;20180;-80
2021/07/20 00:19:23;;;;;;;9.03;6.83;;;;;;;;;;5075825;28;20644;-80
2021/07/20 00:21:49;;;;;;;7.73;6.93;;;;;;;;;;5075746;28;20179;-80
2021/07/20 00:24:15;;;;;;;7.97;6.00;;;;;;;;;;5093962;28;20535;-81
2021/07/20 00:26:43;;;;;;;8.57;7.30;;;;;;;;;;5078463;28;20248;-81
2021/07/20 00:29:09;;;;;;;8.30;7.07;;;;;;;;;;5084312;28;20199;-81
2021/07/20 00:31:35;;;;;;;8.37;6.90;;;;;;;;;;5083560;28;20630;-80
2021/07/20 00:34:01;;;;;;;7.33;6.40;;;;;;;;;;5080065;28;20203;-80
2021/07/20 00:36:27;;;;;;;7.80;6.13;;;;;;;;;;5078940;28;20233;-81
2021/07/20 00:38:53;;;;;;;7.37;6.57;;;;;;;;;;5079823;28;20175;-80
2021/07/20 00:41:20;;;;;;;9.20;7.10;;;;;;;;;;5079363;28;20271;-80
2021/07/20 00:43:46;;;;;;;8.00;6.77;;;;;;;;;;5079125;28;20573;-80
2021/07/20 00:46:12;;;;;;;6.87;6.10;;;;;;;;;;5097747;28;20206;-80
2021/07/20 00:48:38;;;;;;;8.73;7.37;;;;;;;;;;5078436;28;20207;-80
2021/07/20 00:51:04;;;;;;;9.43;7.83;;;;;;;;;;5077345;28;20198;-80
2021/07/20 00:53:30;;;;;;;7.60;6.50;;;;;;;;;;5078503;28;20172;-80
2021/07/20 00:55:56;;;;;;;8.33;6.87;;;;;;;;;;5077725;28;20219;-80
2021/07/20 00:58:23;;;;;;;7.70;6.90;;;;;;;;;;5078304;28;20199;-80
2021/07/20 01:00:51;;;;;;;8.33;7.43;;;;;;;;;;5079376;28;20211;-81
2021/07/20 01:03:17;;;;;;;8.73;6.70;;;;;;;;;;5097692;28;20175;-80
2021/07/20 01:05:44;;;;;;;8.57;6.87;;;;;;;;;;5078459;28;20225;-80
2021/07/20 01:08:11;;;;;;;9.00;7.17;;;;;;;;;;5078251;28;20219;-80
2021/07/20 01:10:39;;;;;;;8.73;7.03;;;;;;;;;;5097146;28;20172;-80
2021/07/20 01:13:06;;;;;;;8.67;7.37;;;;;;;;;;5078789;28;20178;-80
2021/07/20 01:15:33;;;;;;;8.00;7.17;;;;;;;;;;5078407;28;20180;-80
2021/07/20 01:17:59;;;;;;;10.47;8.40;;;;;;;;;;5095881;28;20167;-80
2021/07/20 01:20:27;;;;;;;10.00;8.17;;;;;;;;;;5077722;28;20240;-80
2021/07/20 01:22:59;;;;;;;8.67;6.83;;;;;;;;;;5077740;28;20198;-80
2021/07/20 01:25:25;;;;;;;9.50;7.70;;;;;;;;;;5077926;28;20612;-80
2021/07/20 01:27:54;;;;;;;9.00;7.57;;;;;;;;;;5076517;28;20172;-80
2021/07/20 01:30:20;;;;;;;11.57;7.60;;;;;;;;;;5077303;28;20251;-80
2021/07/20 01:32:47;;;;;;;8.93;7.43;;;;;;;;;;5078030;28;20176;-80
2021/07/20 01:35:14;;;;;;;7.67;6.87;;;;;;;;;;5077668;28;20646;-80
2021/07/20 01:37:41;;;;;;;8.93;6.97;;;;;;;;;;5077206;28;20191;-80
2021/07/20 01:40:08;;;;;;;9.67;7.40;;;;;;;;;;5095896;28;20184;-80
2021/07/20 01:42:34;;;;;;;7.53;6.73;;;;;;;;;;5078541;28;20190;-80
2021/07/20 01:45:01;;;;;;;8.17;7.07;;;;;;;;;;5077858;28;20199;-80
2021/07/20 01:47:28;;;;;;;8.52;7.70;;;;;;;;;;5076601;28;20423;-80
2021/07/20 01:49:57;;;;;;;8.37;7.37;;;;;;;;;;5095779;28;20172;-80
2021/07/20 01:52:24;;;;;;;9.83;7.23;;;;;;;;;;5077647;28;20168;-80
2021/07/20 01:54:50;;;;;;;8.97;7.60;;;;;;;;;;5077205;28;20220;-80
2021/07/20 01:57:17;;;;;;;9.83;7.80;;;;;;;;;;5095941;28;20588;-80
2021/07/20 01:59:43;;;;;;;8.33;6.97;;;;;;;;;;5096196;28;20617;-80
2021/07/20 02:02:36;;;;;;;8.70;7.43;;;;;;;;;;5078125;28;20183;-80
2021/07/20 02:10:31;;;;;;;8.90;7.47;;;;;;;;;;5096468;28;20171;-80
2021/07/20 02:13:00;;;;;;;8.10;7.17;;;;;;;;;;5096736;28;20190;-80
2021/07/20 02:15:27;;;;;;;8.93;7.10;;;;;;;;;;5078256;28;20259;-81
2021/07/20 02:17:54;;;;;;;8.17;6.90;;;;;;;;;;5077660;28;20187;-80
2021/07/20 02:20:22;;;;;;;9.20;7.80;;;;;;;;;;5077061;28;20182;-81
2021/07/20 02:22:49;;;;;;;10.00;8.03;;;;;;;;;;5095002;28;20312;-80
2021/07/20 02:25:16;;;;;;;8.17;7.03;;;;;;;;;;5077125;28;20515;-80
2021/07/20 02:27:43;;;;;;;8.27;7.37;;;;;;;;;;5078043;28;20411;-81
2021/07/20 02:30:11;;;;;;;8.50;7.57;;;;;;;;;;5077765;28;20194;-80
2021/07/20 02:32:38;;;;;;;8.37;7.33;;;;;;;;;;5077815;28;20172;-81
2021/07/20 02:35:05;;;;;;;8.37;7.03;;;;;;;;;;5077516;28;20175;-80
2021/07/20 02:37:33;;;;;;;8.43;7.47;;;;;;;;;;5076993;28;20631;-80
2021/07/20 02:40:00;;;;;;;8.53;7.60;;;;;;;;;;5077389;28;20267;-80
2021/07/20 02:42:27;;;;;;;10.50;7.50;;;;;;;;;;5077366;28;20183;-81
2021/07/20 02:44:54;;;;;;;11.23;8.13;;;;;;;;;;5077851;28;20199;-80
2021/07/20 02:47:21;;;;;;;7.27;6.27;;;;;;;;;;5077735;28;20172;-80
2021/07/20 02:49:48;;;;;;;9.93;7.37;;;;;;;;;;5076799;28;20514;-80
2021/07/20 02:52:15;;;;;;;8.53;7.47;;;;;;;;;;5076144;28;20199;-80
2021/07/20 02:54:41;;;;;;;9.43;6.80;;;;;;;;;;5076507;28;20219;-79
2021/07/20 02:57:08;;;;;;;8.47;7.33;;;;;;;;;;5076287;28;20615;-80
2021/07/20 02:59:35;;;;;;;11.00;7.93;;;;;;;;;;5075019;28;20178;-80
2021/07/20 03:02:02;;;;;;;9.03;7.40;;;;;;;;;;5076106;28;20271;-80
2021/07/20 03:04:28;;;;;;;8.67;7.73;;;;;;;;;;5075745;28;20184;-79
2021/07/20 03:07:03;;;;;;;8.20;7.20;;;;;;;;;;5075265;28;20203;-79
2021/07/20 03:09:30;;;;;;;7.70;6.97;;;;;;;;;;5094447;28;20229;-80
2021/07/20 03:12:03;;;;;;;10.17;7.53;;;;;;;;;;5076178;28;20186;-80
2021/07/20 03:14:30;;;;;;;10.93;8.07;;;;;;;;;;5075794;28;20266;-80
2021/07/20 03:16:57;;;;;;;8.30;7.37;;;;;;;;;;5075345;28;20188;-80
2021/07/20 03:19:25;;;;;;;9.27;7.37;;;;;;;;;;5075794;28;20180;-79
2021/07/20 03:21:53;;;;;;;8.67;7.73;;;;;;;;;;5076165;28;20670;-80
2021/07/20 03:24:20;;;;;;;7.67;6.87;;;;;;;;;;5094698;28;20741;-79
2021/07/20 03:26:46;;;;;;;9.30;7.40;;;;;;;;;;5075874;28;20180;-79
2021/07/20 03:29:14;;;;;;;10.77;7.67;;;;;;;;;;5075579;28;20281;-79
2021/07/20 03:31:40;;;;;;;8.13;7.27;;;;;;;;;;5093086;28;20534;-79
2021/07/20 03:34:06;;;;;;;8.83;7.70;;;;;;;;;;5075170;28;20180;-79
2021/07/20 03:36:33;;;;;;;9.40;7.60;;;;;;;;;;5074793;28;20187;-79
2021/07/20 03:39:00;;;;;;;9.90;7.23;;;;;;;;;;5092690;28;20178;-79
2021/07/20 03:41:27;;;;;;;8.53;7.67;;;;;;;;;;5074051;28;20321;-79
2021/07/20 03:43:54;;;;;;;8.53;7.60;;;;;;;;;;5075403;28;20514;-79
2021/07/20 03:46:20;;;;;;;8.77;7.27;;;;;;;;;;5093351;28;20196;-79
2021/07/20 03:48:47;;;;;;;8.33;6.97;;;;;;;;;;5074954;28;20272;-79
2021/07/20 03:51:13;;;;;;;9.50;7.67;;;;;;;;;;5093208;28;20633;-80
2021/07/20 03:53:40;;;;;;;7.50;6.43;;;;;;;;;;5075748;28;20301;-79
2021/07/20 03:56:06;;;;;;;8.70;7.50;;;;;;;;;;5093024;28;20733;-80
2021/07/20 03:58:33;;;;;;;9.47;7.87;;;;;;;;;;5092460;28;20178;-79
2021/07/20 04:01:01;;;;;;;8.27;7.47;;;;;;;;;;5074537;28;20222;-79
2021/07/20 04:03:27;;;;;;;8.83;7.93;;;;;;;;;;5078515;28;20267;-79
2021/07/20 04:05:56;;;;;;;8.67;7.77;;;;;;;;;;5077213;28;20208;-79
2021/07/20 04:08:23;;;;;;;8.17;6.47;;;;;;;;;;5078298;28;20174;-79
2021/07/20 04:10:49;;;;;;;9.20;7.33;;;;;;;;;;5078020;28;20732;-79
2021/07/20 04:13:16;;;;;;;9.07;7.67;;;;;;;;;;5077858;28;20630;-79
2021/07/20 04:15:45;;;;;;;10.23;8.20;;;;;;;;;;5077467;28;20176;-80
2021/07/20 04:18:12;;;;;;;10.47;7.60;;;;;;;;;;5076983;28;20270;-80
2021/07/20 04:20:38;;;;;;;9.17;6.93;;;;;;;;;;5077521;28;20176;-79
2021/07/20 04:23:04;;;;;;;8.40;7.17;;;;;;;;;;5077613;28;20172;-79
2021/07/20 04:25:31;;;;;;;8.67;7.20;;;;;;;;;;5078384;28;20277;-79
2021/07/20 04:27:57;;;;;;;9.67;8.07;;;;;;;;;;5077913;28;20180;-79
2021/07/20 04:30:23;;;;;;;8.63;7.57;;;;;;;;;;5078227;28;20168;-79
2021/07/20 04:32:49;;;;;;;8.67;7.73;;;;;;;;;;5096394;28;20214;-79
2021/07/20 04:35:17;;;;;;;8.60;7.33;;;;;;;;;;5078580;28;20176;-79
2021/07/20 04:37:43;;;;;;;9.87;7.20;;;;;;;;;;5077493;28;20175;-79
2021/07/20 04:40:13;;;;;;;9.77;7.07;;;;;;;;;;5078518;28;20191;-79
2021/07/20 04:42:40;;;;;;;9.93;8.33;;;;;;;;;;5078644;28;20167;-79
2021/07/20 04:45:07;;;;;;;10.37;8.03;;;;;;;;;;5096876;28;20208;-79
2021/07/20 04:47:35;;;;;;;9.13;7.67;;;;;;;;;;5096728;28;20176;-79
2021/07/20 04:50:01;;;;;;;8.67;7.23;;;;;;;;;;5096862;28;20164;-80
2021/07/20 04:52:28;;;;;;;9.17;7.57;;;;;;;;;;5077926;28;20440;-79
2021/07/20 04:54:54;;;;;;;9.80;7.63;;;;;;;;;;5095198;28;20227;-80
2021/07/20 04:57:20;;;;;;;10.30;7.40;;;;;;;;;;5076429;28;20300;-80
2021/07/20 04:59:46;;;;;;;8.33;7.27;;;;;;;;;;5076899;28;20211;-80
2021/07/20 05:02:14;;;;;;;8.63;7.67;;;;;;;;;;5095012;28;20175;-80
2021/07/20 05:04:41;;;;;;;9.55;8.48;;;;;;;;;;5075973;28;20460;-79
2021/07/20 05:07:10;;;;;;;8.97;7.60;;;;;;;;;;5076066;28;20303;-80
2021/07/20 05:09:37;;;;;;;9.17;8.27;;;;;;;;;;5076456;28;20180;-80
2021/07/20 05:12:03;;;;;;;9.77;7.53;;;;;;;;;;5076460;28;20191;-79
2021/07/20 05:14:29;;;;;;;9.47;7.47;;;;;;;;;;5076933;28;20172;-79
2021/07/20 05:16:55;;;;;;;7.77;6.97;;;;;;;;;;5076261;28;20305;-79
2021/07/20 05:19:21;;;;;;;9.03;7.93;;;;;;;;;;5076325;28;20172;-80
2021/07/20 05:21:48;;;;;;;10.23;8.27;;;;;;;;;;5075628;28;20175;-80
2021/07/20 05:24:15;;;;;;;11.23;7.77;;;;;;;;;;5076328;28;20258;-80
2021/07/20 05:26:45;;;;;;;9.07;7.90;;;;;;;;;;5076642;28;20184;-79
2021/07/20 05:29:14;;;;;;;10.07;9.03;;;;;;;;;;5076948;28;20210;-80
2021/07/20 05:31:40;;;;;;;9.77;8.40;;;;;;;;;;5075637;28;20745;-80
2021/07/20 05:34:06;;;;;;;11.27;8.33;;;;;;;;;;5075138;28;20601;-79
2021/07/20 05:36:32;;;;;;;10.53;8.47;;;;;;;;;;5093037;28;20249;-79
2021/07/20 05:38:58;;;;;;;9.50;8.40;;;;;;;;;;5093854;28;20263;-80
2021/07/20 05:41:25;;;;;;;11.77;8.87;;;;;;;;;;5075762;28;20178;-79
2021/07/20 05:43:51;;;;;;;11.27;8.50;;;;;;;;;;5076183;28;20255;-79
2021/07/20 05:46:17;;;;;;;11.40;9.07;;;;;;;;;;5093965;28;20204;-80
2021/07/20 05:48:43;;;;;;;12.30;9.40;;;;;;;;;;5076862;28;20543;-79
2021/07/20 05:51:10;;;;;;;10.23;9.13;;;;;;;;;;5094835;28;20179;-80
2021/07/20 05:53:38;;;;;;;9.30;7.97;;;;;;;;;;5074470;28;20175;-82
2021/07/20 05:56:04;;;;;;;12.70;9.67;;;;;;;;;;5037147;28;1101908;-82
2021/07/20 05:58:31;;;;;;;9.73;7.90;;;;;;;;;;5074948;28;20184;-82
2021/07/20 06:01:02;;;;;;;10.77;8.57;;;;;;;;;;5093102;28;20178;-82
2021/07/20 06:03:28;;;;;;;8.83;7.93;;;;;;;;;;5074750;28;20203;-82
2021/07/20 06:05:56;;;;;;;12.43;8.00;;;;;;;;;;5074248;28;20245;-82
2021/07/20 06:08:23;;;;;;;14.00;10.13;;;;;;;;;;5074446;28;20182;-82
2021/07/20 06:10:54;;;;;;;11.73;8.97;;;;;;;;;;5074306;28;20171;-82
2021/07/20 06:13:21;;;;;;;10.33;9.17;;;;;;;;;;5090329;28;20182;-82
2021/07/20 06:15:48;;;;;;;12.47;8.53;;;;;;;;;;5091884;28;20196;-82
2021/07/20 06:18:15;;;;;;;13.80;9.00;;;;;;;;;;5072975;28;20614;-81
2021/07/20 06:20:49;;;;;;;11.73;8.33;;;;;;;;;;5073259;28;20172;-82
2021/07/20 06:23:16;;;;;;;10.13;8.40;;;;;;;;;;5072807;28;20178;-82
2021/07/20 06:25:42;;;;;;;13.20;10.17;;;;;;;;;;5072977;28;20203;-81
2021/07/20 06:28:09;;;;;;;13.73;9.70;;;;;;;;;;5073925;28;20241;-82
2021/07/20 06:30:35;;;;;;;11.93;8.83;;;;;;;;;;5092457;28;20168;-82
2021/07/20 06:33:01;;;;;;;11.60;8.63;;;;;;;;;;5073885;28;20187;-81
2021/07/20 06:35:28;;;;;;;15.13;9.03;;;;;;;;;;5073972;28;20175;-82
2021/07/20 06:37:54;;;;;;;12.30;9.27;;;;;;;;;;5073657;28;20549;-81
2021/07/20 06:40:24;;;;;;;11.07;8.20;;;;;;;;;;5074158;28;20630;-82
2021/07/20 06:42:50;;;;;;;11.87;9.33;;;;;;;;;;5075890;28;20625;-82
2021/07/20 06:45:17;;;;;;;13.10;9.13;;;;;;;;;;5076098;28;20598;-82
2021/07/20 06:47:46;;;;;;;12.43;8.87;;;;;;;;;;5076229;28;20175;-82
2021/07/20 06:50:15;;;;;;;13.23;9.57;;;;;;;;;;5093048;28;20541;-82
2021/07/20 06:52:42;;;;;;;11.97;9.40;;;;;;;;;;5076371;28;20627;-81
2021/07/20 06:55:09;;;;;;;9.90;8.33;;;;;;;;;;5076567;28;20231;-82
2021/07/20 06:57:37;;;;;;;11.17;9.07;;;;;;;;;;5076240;28;20178;-82
2021/07/20 07:00:04;;;;;;;11.83;8.53;;;;;;;;;;5075990;28;20175;-82
2021/07/20 07:02:31;;;;;;;13.33;8.53;;;;;;;;;;5076045;28;20173;-81
2021/07/20 07:05:09;;;;;;;14.47;8.20;;;;;;;;;;5077335;28;20198;-83
2021/07/20 07:07:37;;;;;;;11.10;9.15;;;;;;;;;;5075023;28;20405;-82
2021/07/20 07:10:04;;;;;;;13.33;9.20;;;;;;;;;;5076368;28;20181;-83
2021/07/20 07:12:33;;;;;;;12.57;8.20;;;;;;;;;;5075838;28;20635;-83
2021/07/20 07:15:01;;;;;;;12.83;7.60;;;;;;;;;;5075396;28;20182;-83
2021/07/20 07:17:28;;;;;;;8.80;7.20;;;;;;;;;;5074060;28;20182;-83
2021/07/20 07:19:55;;;;;;;15.00;7.60;;;;;;;;;;5074357;28;20176;-82
2021/07/20 07:22:23;;;;;;;12.37;6.93;;;;;;;;;;5073194;28;20563;-82
2021/07/20 07:24:49;;;;;;;12.70;7.97;;;;;;;;;;5073389;28;20274;-82
2021/07/20 07:27:16;;;;;;;13.73;7.17;;;;;;;;;;5072912;28;20169;-83
2021/07/20 07:29:43;;;;;;;12.53;8.07;;;;;;;;;;5074592;28;20176;-83
2021/07/20 07:32:10;;;;;;;13.37;8.23;;;;;;;;;;5074042;28;20611;-84
2021/07/20 07:34:36;;;;;;;12.60;7.70;;;;;;;;;;5093648;28;20198;-84
2021/07/20 07:37:02;;;;;;;12.67;7.53;;;;;;;;;;5074536;28;20631;-84
2021/07/20 07:39:29;;;;;;;10.33;6.83;;;;;;;;;;5075395;28;20167;-83
2021/07/20 07:41:55;;;;;;;11.27;7.70;;;;;;;;;;5075788;28;20179;-84
2021/07/20 07:44:22;;;;;;;10.93;8.02;;;;;;;;;;5074154;28;20401;-84
2021/07/20 07:46:50;;;;;;;11.27;7.30;;;;;;;;;;5093453;28;20630;-84
2021/07/20 07:49:16;;;;;;;15.33;8.10;;;;;;;;;;5074346;28;20263;-84
2021/07/20 07:51:44;;;;;;;12.00;8.03;;;;;;;;;;5074625;28;20168;-84
2021/07/20 07:54:11;;;;;;;11.13;7.27;;;;;;;;;;5074625;28;20764;-83
2021/07/20 07:56:37;;;;;;;10.17;6.73;;;;;;;;;;5073749;28;20182;-83
2021/07/20 07:59:04;;;;;;;9.73;7.47;;;;;;;;;;5073886;28;20262;-83
2021/07/20 08:01:32;;;;;;;13.20;7.90;;;;;;;;;;5075661;28;20218;-83
2021/07/20 08:03:59;;;;;;;10.37;7.90;;;;;;;;;;5072879;28;20176;-83
2021/07/20 08:06:28;;;;;;;11.53;8.03;;;;;;;;;;5074031;28;20199;-84
2021/07/20 08:08:57;;;;;;;11.63;7.07;;;;;;;;;;5074352;28;20692;-83
2021/07/20 08:11:23;;;;;;;10.23;7.50;;;;;;;;;;5074412;28;20164;-83
2021/07/20 08:13:51;;;;;;;11.13;7.10;;;;;;;;;;5077673;28;20183;-84
2021/07/20 08:16:18;;;;;;;12.10;7.40;;;;;;;;;;5075959;28;20180;-84
2021/07/20 08:18:45;;;;;;;8.57;6.70;;;;;;;;;;5092441;28;20172;-83
2021/07/20 08:21:11;;;;;;;9.13;7.37;;;;;;;;;;5073678;28;20275;-83
2021/07/20 08:23:38;;;;;;;11.23;8.23;;;;;;;;;;5073567;28;20176;-83
2021/07/20 08:26:06;;;;;;;10.83;7.23;;;;;;;;;;5073806;28;20655;-83
2021/07/20 08:28:39;;;;;;;8.70;7.53;;;;;;;;;;5092294;28;20172;-83
2021/07/20 08:31:05;;;;;;;9.03;7.03;;;;;;;;;;5073694;28;20172;-83
2021/07/20 08:33:33;;;;;;;10.53;7.63;;;;;;;;;;5074191;28;20241;-83
2021/07/20 08:36:01;;;;;;;10.93;6.90;;;;;;;;;;5073447;28;20176;-83
2021/07/20 08:38:27;;;;;;;10.20;7.27;;;;;;;;;;5074809;28;20180;-83
2021/07/20 08:41:00;;;;;;;9.33;6.83;;;;;;;;;;5073806;28;20202;-83
2021/07/20 08:43:44;;;;;;;8.40;7.50;;;;;;;;;;5073924;28;20630;-83
2021/07/20 08:46:19;;;;;;;10.97;8.23;;;;;;;;;;5074630;28;20263;-83
2021/07/20 08:49:04;;;;;;;10.23;7.53;;;;;;;;;;5078134;28;20190;-83
2021/07/20 08:51:30;;;;;;;8.80;7.37;;;;;;;;;;5077827;28;20220;-83
2021/07/20 08:54:07;;;;;;;11.83;8.57;;;;;;;;;;5079007;28;20271;-83
2021/07/20 08:56:39;;;;;;;10.03;8.07;;;;;;;;;;5077348;28;20180;-82
2021/07/20 08:59:07;;;;;;;9.93;8.03;;;;;;;;;;5077284;28;20656;-82
2021/07/20 09:01:36;;;;;;;11.07;7.57;;;;;;;;;;5077081;28;20179;-83
2021/07/20 09:04:11;;;;;;;10.40;8.20;;;;;;;;;;5077025;28;20270;-83
2021/07/20 09:06:41;;;;;;;11.00;7.97;;;;;;;;;;5076478;28;20284;-83
2021/07/20 09:09:11;;;;;;;11.93;8.10;;;;;;;;;;5076966;28;20170;-83
2021/07/20 09:11:47;;;;;;;9.03;7.00;;;;;;;;;;5076578;28;20267;-83
2021/07/20 09:14:22;;;;;;;10.00;8.00;;;;;;;;;;5076926;28;20548;-83
2021/07/20 09:16:53;;;;;;;7.90;7.07;;;;;;;;;;5077069;28;20179;-83
2021/07/20 09:19:34;;;;;;;11.77;8.17;;;;;;;;;;5076593;28;20188;-82
2021/07/20 09:22:06;;;;;;;9.97;7.47;;;;;;;;;;5075702;28;20187;-83
2021/07/20 09:24:55;;;;;;;11.00;8.00;;;;;;;;;;5075622;28;20179;-83
2021/07/20 09:27:27;;;;;;;8.37;7.23;;;;;;;;;;5075059;28;20199;-83
2021/07/20 09:29:54;;;;;;;10.03;7.83;;;;;;;;;;5093528;28;20515;-83
2021/07/20 09:32:47;;;;;;;10.60;8.20;;;;;;;;;;5075610;28;20172;-82
2021/07/20 09:35:32;;;;;;;14.00;9.20;;;;;;;;;;5075810;28;20175;-83
2021/07/20 09:38:07;;;;;;;7.93;7.13;;;;;;;;;;5075484;28;20179;-83
2021/07/20 09:40:51;;;;;;;11.53;7.77;;;;;;;;;;5075893;28;20229;-84
2021/07/20 09:43:39;;;;;;;12.10;7.07;;;;;;;;;;5075784;28;20195;-83
2021/07/20 09:46:07;;;;;;;9.23;7.13;;;;;;;;;;5076615;28;20215;-83
2021/07/20 09:48:45;;;;;;;10.43;8.00;;;;;;;;;;5075505;28;20180;-84
2021/07/20 09:51:17;;;;;;;11.20;7.43;;;;;;;;;;5076251;28;20164;-83
2021/07/20 09:54:02;;;;;;;8.43;7.53;;;;;;;;;;5075643;28;20166;-84
2021/07/20 09:56:46;;;;;;;11.83;8.03;;;;;;;;;;5075572;28;20201;-83
2021/07/20 09:59:31;;;;;;;8.97;7.27;;;;;;;;;;5074656;28;20185;-83
2021/07/20 10:01:59;;;;;;;8.67;7.43;;;;;;;;;;5095058;28;20170;-83
2021/07/20 10:04:45;;;;;;;12.77;8.27;;;;;;;;;;5075930;28;20184;-83
2021/07/20 10:07:24;;;;;;;8.90;6.90;;;;;;;;;;5075512;28;20229;-83
2021/07/20 10:09:55;;;;;;;9.10;6.87;;;;;;;;;;5094164;28;20631;-83
2021/07/20 10:12:24;;;;;;;9.97;7.57;;;;;;;;;;5076291;28;20199;-83
2021/07/20 10:14:53;;;;;;;9.98;8.18;;;;;;;;;;5076369;28;20409;-84
2021/07/20 10:17:31;;;;;;;8.30;7.40;;;;;;;;;;5077054;28;20197;-84
2021/07/20 10:20:11;;;;;;;14.33;7.80;;;;;;;;;;5095599;28;20172;-83
2021/07/20 10:22:39;;;;;;;10.30;7.60;;;;;;;;;;5077320;28;20163;-84
2021/07/20 10:25:07;;;;;;;9.17;7.70;;;;;;;;;;5077859;28;20211;-83
2021/07/20 10:27:44;;;;;;;8.27;7.47;;;;;;;;;;5077564;28;20275;-83
2021/07/20 10:30:12;;;;;;;9.00;7.43;;;;;;;;;;5078244;28;20166;-83
2021/07/20 10:32:45;;;;;;;11.00;8.13;;;;;;;;;;5095658;28;20646;-83
2021/07/20 10:35:16;;;;;;;12.50;7.27;;;;;;;;;;5095384;28;20160;-84
2021/07/20 10:37:43;;;;;;;8.33;7.43;;;;;;;;;;5095310;28;20165;-83
2021/07/20 10:40:15;;;;;;;9.57;7.77;;;;;;;;;;5077486;28;20206;-84
2021/07/20 10:42:44;;;;;;;10.00;8.00;;;;;;;;;;5076963;28;20175;-83
2021/07/20 10:45:11;;;;;;;8.40;7.43;;;;;;;;;;5076636;28;20205;-83
2021/07/20 10:47:41;;;;;;;10.73;7.93;;;;;;;;;;5095406;28;20194;-83
2021/07/20 10:50:08;;;;;;;9.50;7.73;;;;;;;;;;5077091;28;20216;-84
2021/07/20 10:52:48;;;;;;;8.67;7.77;;;;;;;;;;5095285;28;20204;-83
2021/07/20 10:55:14;;;;;;;9.87;7.77;;;;;;;;;;5073007;28;20230;-83
2021/07/20 10:57:46;;;;;;;9.50;8.07;;;;;;;;;;5074718;28;20184;-83
2021/07/20 11:00:15;;;;;;;8.73;7.83;;;;;;;;;;5057153;28;20654;-83
2021/07/20 11:02:47;;;;;;;10.87;8.73;;;;;;;;;;5090649;28;20188;-83
2021/07/20 11:05:15;;;;;;;14.43;8.53;;;;;;;;;;5090450;28;20201;-84
2021/07/20 11:07:45;;;;;;;9.90;7.53;;;;;;;;;;5102569;28;20198;-83
2021/07/20 11:10:13;;;;;;;9.20;7.73;;;;;;;;;;5056254;28;20181;-83
2021/07/20 11:12:41;;;;;;;9.90;7.33;;;;;;;;;;5057170;28;20216;-83
2021/07/20 11:15:08;;;;;;;11.70;8.80;;;;;;;;;;5056527;28;20230;-83
2021/07/20 11:17:36;;;;;;;8.73;7.83;;;;;;;;;;5056423;28;20181;-83
2021/07/20 11:20:06;;;;;;;9.07;8.13;;;;;;;;;;5056049;28;20173;-82
2021/07/20 11:22:33;;;;;;;9.97;8.87;;;;;;;;;;5073858;28;20171;-83
2021/07/20 11:24:59;;;;;;;10.67;7.93;;;;;;;;;;5056086;28;20222;-83
2021/07/20 11:27:25;;;;;;;10.63;8.20;;;;;;;;;;5056521;28;20181;-83
2021/07/20 11:29:52;;;;;;;11.97;8.43;;;;;;;;;;5056115;28;20181;-83
2021/07/20 11:32:23;;;;;;;9.00;7.67;;;;;;;;;;5056068;28;20176;-83
2021/07/20 11:34:53;;;;;;;10.40;8.67;;;;;;;;;;5055988;28;20192;-83
2021/07/20 11:37:23;;;;;;;10.07;8.43;;;;;;;;;;5073123;28;20182;-83
2021/07/20 11:39:52;;;;;;;10.23;8.07;;;;;;;;;;5056015;28;20181;-83
2021/07/20 11:42:22;;;;;;;11.13;7.93;;;;;;;;;;5055945;28;20180;-83
2021/07/20 11:44:51;;;;;;;9.93;8.47;;;;;;;;;;5074329;28;20180;-83
2021/07/20 11:47:36;;;;;;;11.07;8.63;;;;;;;;;;5055396;28;20543;-82
2021/07/20 11:50:05;;;;;;;10.30;8.20;;;;;;;;;;5055575;28;20240;-83
2021/07/20 11:52:50;;;;;;;9.87;8.23;;;;;;;;;;5055559;28;20184;-83
2021/07/20 11:55:31;;;;;;;9.23;7.63;;;;;;;;;;5055182;28;20216;-82
2021/07/20 11:58:16;;;;;;;9.87;8.00;;;;;;;;;;5054684;28;20184;-83
2021/07/20 12:00:52;;;;;;;10.45;9.27;;;;;;;;;;5052838;28;20410;-83
2021/07/20 12:03:24;;;;;;;11.23;8.80;;;;;;;;;;5054516;28;20172;-82
2021/07/20 12:06:09;;;;;;;8.63;7.73;;;;;;;;;;5054608;28;20291;-83
2021/07/20 12:08:47;;;;;;;10.87;7.87;;;;;;;;;;5055084;28;20700;-82
2021/07/20 12:11:13;;;;;;;9.20;8.20;;;;;;;;;;5054618;28;20188;-83
2021/07/20 12:13:40;;;;;;;13.70;10.03;;;;;;;;;;5054829;28;20173;-83
2021/07/20 12:16:13;;;;;;;10.27;8.60;;;;;;;;;;5054621;28;20183;-82
2021/07/20 12:18:54;;;;;;;9.73;7.53;;;;;;;;;;5054165;28;20204;-83
2021/07/20 12:21:21;;;;;;;9.37;8.30;;;;;;;;;;5054383;28;20882;-83
2021/07/20 12:23:51;;;;;;;10.83;8.50;;;;;;;;;;5058981;28;20588;-84
2021/07/20 12:26:18;;;;;;;10.97;8.43;;;;;;;;;;5056778;28;20197;-84
2021/07/20 12:28:44;;;;;;;10.00;8.67;;;;;;;;;;5056294;28;20188;-83
2021/07/20 12:31:12;;;;;;;9.13;8.17;;;;;;;;;;5057152;28;20170;-84
2021/07/20 12:33:45;;;;;;;18.13;9.00;;;;;;;;;;5055369;28;20175;-84
2021/07/20 12:36:12;;;;;;;11.77;9.10;;;;;;;;;;5071716;28;20246;-84
2021/07/20 12:38:38;;;;;;;8.70;7.53;;;;;;;;;;5056825;28;20261;-83
2021/07/20 12:41:08;;;;;;;11.60;9.33;;;;;;;;;;5055492;28;20422;-83
2021/07/20 12:43:36;;;;;;;11.33;8.07;;;;;;;;;;5072135;28;20412;-83
2021/07/20 12:46:09;;;;;;;11.00;8.20;;;;;;;;;;5055045;28;20205;-84
2021/07/20 12:48:35;;;;;;;11.20;8.50;;;;;;;;;;5055614;28;20163;-84
2021/07/20 12:51:12;;;;;;;15.27;9.57;;;;;;;;;;5054793;28;20174;-84
2021/07/20 12:53:41;;;;;;;13.07;10.13;;;;;;;;;;5057772;28;20627;-84
2021/07/20 12:56:10;;;;;;;11.53;8.13;;;;;;;;;;5055305;28;20269;-84
2021/07/20 12:58:36;;;;;;;11.03;9.33;;;;;;;;;;5071904;28;20641;-84
2021/07/20 13:01:03;;;;;;;14.50;9.10;;;;;;;;;;5055446;28;20186;-84
2021/07/20 13:03:29;;;;;;;9.83;8.00;;;;;;;;;;5055093;28;20173;-84
2021/07/20 13:05:56;;;;;;;11.90;9.17;;;;;;;;;;5056405;28;20198;-85
2021/07/20 13:08:22;;;;;;;8.63;7.70;;;;;;;;;;5071870;28;20233;-84
2021/07/20 13:10:49;;;;;;;8.97;7.17;;;;;;;;;;5055468;28;20210;-83
2021/07/20 13:13:15;;;;;;;11.00;8.50;;;;;;;;;;5054830;28;20179;-84
2021/07/20 13:15:46;;;;;;;10.10;7.87;;;;;;;;;;5059045;28;20180;-84
2021/07/20 13:18:12;;;;;;;9.73;7.90;;;;;;;;;;5058161;28;20183;-83
2021/07/20 13:20:38;;;;;;;10.70;8.20;;;;;;;;;;5058829;28;20206;-85
2021/07/20 13:23:04;;;;;;;10.13;7.60;;;;;;;;;;5057747;28;20180;-84
2021/07/20 13:25:30;;;;;;;9.77;7.20;;;;;;;;;;5058189;28;20198;-84
2021/07/20 13:27:57;;;;;;;12.33;8.27;;;;;;;;;;5057916;28;20247;-85
2021/07/20 13:30:28;;;;;;;10.53;7.70;;;;;;;;;;5058516;28;20571;-83
2021/07/20 13:32:54;;;;;;;8.93;7.90;;;;;;;;;;5057814;28;20254;-84
2021/07/20 13:35:21;;;;;;;9.50;8.37;;;;;;;;;;5075729;28;20174;-83
2021/07/20 13:37:48;;;;;;;10.90;8.27;;;;;;;;;;5057666;28;20191;-84
2021/07/20 13:40:15;;;;;;;9.23;7.97;;;;;;;;;;5058312;28;20547;-86
2021/07/20 13:42:41;;;;;;;11.43;8.20;;;;;;;;;;5076218;28;20533;-85
2021/07/20 13:45:09;;;;;;;8.70;7.47;;;;;;;;;;5058346;28;20217;-86
2021/07/20 13:47:41;;;;;;;10.03;9.00;;;;;;;;;;5057555;28;20667;-86
2021/07/20 13:50:07;;;;;;;10.37;7.87;;;;;;;;;;5076341;28;20203;-86
2021/07/20 13:52:34;;;;;;;10.63;7.30;;;;;;;;;;5057410;28;20188;-86
2021/07/20 13:55:13;;;;;;;9.30;7.10;;;;;;;;;;5057444;28;20601;-85
2021/07/20 13:57:39;;;;;;;8.53;7.63;;;;;;;;;;5057215;28;20212;-86
2021/07/20 14:00:06;;;;;;;8.63;7.03;;;;;;;;;;5056924;28;20205;-86
2021/07/20 14:02:33;;;;;;;7.63;6.70;;;;;;;;;;5057316;28;20188;-86
2021/07/20 14:05:00;;;;;;;8.20;6.10;;;;;;;;;;5057566;28;20667;-86
2021/07/20 14:07:27;;;;;;;10.43;7.87;;;;;;;;;;5057735;28;20195;-88
2021/07/20 14:09:53;;;;;;;8.13;6.87;;;;;;;;;;5058118;28;20679;-87
2021/07/20 14:12:20;;;;;;;9.67;7.47;;;;;;;;;;5057771;28;20176;-88
2021/07/20 14:14:48;;;;;;;10.93;7.53;;;;;;;;;;5058266;28;20244;-88
2021/07/20 14:17:14;;;;;;;10.17;7.87;;;;;;;;;;5058154;28;20198;-88
2021/07/20 14:19:40;;;;;;;9.03;7.73;;;;;;;;;;5076173;28;20179;-87
2021/07/20 14:22:07;;;;;;;8.00;7.13;;;;;;;;;;5057321;28;20512;-88
2021/07/20 14:24:35;;;;;;;10.07;7.03;;;;;;;;;;5058006;28;20178;-88
2021/07/20 14:27:02;;;;;;;12.07;7.50;;;;;;;;;;5057700;28;20660;-87
2021/07/20 14:29:30;;;;;;;8.87;7.60;;;;;;;;;;5058131;28;20183;-87
2021/07/20 14:32:18;;;;;;;8.23;6.97;;;;;;;;;;5058340;28;20228;-87
2021/07/20 14:34:48;;;;;;;10.73;6.67;;;;;;;;;;5057946;28;20168;-87
2021/07/20 14:37:33;;;;;;;8.67;6.87;;;;;;;;;;5056759;28;20546;-88
2021/07/20 14:40:00;;;;;;;9.67;7.37;;;;;;;;;;5056289;28;20258;-87
2021/07/20 14:42:30;;;;;;;8.33;7.10;;;;;;;;;;5056214;28;20171;-87
2021/07/20 14:44:57;;;;;;;7.37;6.67;;;;;;;;;;5056033;28;20211;-87
2021/07/20 14:47:34;;;;;;;8.47;7.03;;;;;;;;;;5059296;28;20177;-88
2021/07/20 14:50:01;;;;;;;7.20;6.50;;;;;;;;;;5058471;28;20184;-87
2021/07/20 14:52:36;;;;;;;7.67;5.93;;;;;;;;;;5056576;28;20190;-88